createdAt,value
2019-02-25T00:00:56.695Z,7.97
2019-02-25T00:03:25.689Z,7.73
2019-02-25T00:05:54.397Z,6.70
2019-02-25T00:08:23.342Z,7.67
2019-02-25T00:10:52.339Z,7.77
2019-02-25T00:13:21.491Z,7.37
2019-02-25T00:15:50.178Z,7.27
2019-02-25T00:18:19.529Z,7.90
2019-02-25T00:20:48.424Z,8.67
2019-02-25T00:23:17.310Z,8.10
2019-02-25T00:25:46.017Z,8.17
2019-02-25T00:28:14.647Z,8.83
2019-02-25T00:30:43.629Z,7.30
2019-02-25T00:33:12.907Z,8.43
2019-02-25T00:35:41.845Z,7.50
2019-02-25T00:38:10.786Z,8.33
2019-02-25T00:40:39.465Z,8.33
2019-02-25T00:43:08.116Z,8.00
2019-02-25T00:45:37.701Z,7.70
2019-02-25T00:48:06.477Z,7.90
2019-02-25T00:50:35.139Z,7.83
2019-02-25T00:53:03.877Z,7.77
2019-02-25T00:55:32.672Z,7.87
2019-02-25T00:58:01.417Z,7.80
2019-02-25T01:00:30.169Z,6.83
2019-02-25T01:02:59.185Z,7.07
2019-02-25T01:05:27.913Z,8.07
2019-02-25T01:07:56.610Z,8.60
2019-02-25T01:10:25.385Z,8.03
2019-02-25T01:12:54.094Z,8.20
2019-02-25T01:15:23.259Z,9.37
2019-02-25T01:17:52.726Z,8.50
2019-02-25T01:20:21.781Z,7.47
2019-02-25T01:22:50.742Z,7.47
2019-02-25T01:25:19.471Z,8.40
2019-02-25T01:27:48.451Z,7.63
2019-02-25T01:30:17.694Z,8.03
2019-02-25T01:32:46.610Z,7.93
2019-02-25T01:35:15.713Z,7.60
2019-02-25T01:37:44.821Z,8.40
2019-02-25T01:40:13.698Z,6.53
2019-02-25T01:42:42.614Z,8.57
2019-02-25T01:45:12.234Z,8.57
2019-02-25T01:47:41.103Z,7.40
2019-02-25T01:50:10.246Z,7.70
2019-02-25T01:52:38.907Z,7.10
2019-02-25T01:55:08.248Z,7.93
2019-02-25T01:57:37.115Z,7.63
2019-02-25T02:00:08.496Z,7.53
2019-02-25T02:02:37.441Z,9.00
2019-02-25T02:05:06.174Z,8.80
2019-02-25T02:07:34.826Z,8.30
2019-02-25T02:10:03.605Z,8.07
2019-02-25T02:12:32.335Z,6.90
2019-02-25T02:15:01.239Z,7.10
2019-02-25T02:17:29.993Z,7.27
2019-02-25T02:19:58.721Z,7.37
2019-02-25T02:22:27.611Z,7.53
2019-02-25T02:24:56.618Z,10.80
2019-02-25T02:27:25.773Z,8.67
2019-02-25T02:29:54.445Z,7.30
2019-02-25T02:32:23.477Z,8.40
2019-02-25T02:34:52.314Z,7.23
2019-02-25T02:37:20.972Z,6.73
2019-02-25T02:39:49.982Z,6.70
2019-02-25T02:42:22.782Z,6.70
2019-02-25T02:45:03.617Z,7.13
2019-02-25T02:47:38.473Z,7.23
2019-02-25T02:50:10.221Z,7.60
2019-02-25T02:52:39.013Z,7.73
2019-02-25T02:55:09.554Z,6.90
2019-02-25T02:57:38.290Z,7.43
2019-02-25T03:00:10.857Z,6.37
2019-02-25T03:02:39.617Z,6.97
2019-02-25T03:05:10.338Z,7.40
2019-02-25T03:07:39.080Z,7.20
2019-02-25T03:10:08.906Z,7.27
2019-02-25T03:12:37.613Z,6.57
2019-02-25T03:15:08.383Z,6.93
2019-02-25T03:17:37.838Z,7.75
2019-02-25T03:20:06.971Z,7.10
2019-02-25T03:22:35.865Z,7.43
2019-02-25T03:25:05.376Z,7.50
2019-02-25T03:27:34.303Z,7.30
2019-02-25T03:30:03.262Z,6.93
2019-02-25T03:32:32.508Z,6.97
2019-02-25T03:35:01.876Z,7.93
2019-02-25T03:37:31.110Z,7.23
2019-02-25T03:40:00.228Z,7.13
2019-02-25T03:42:29.265Z,7.07
2019-02-25T03:44:58.298Z,6.93
2019-02-25T03:47:27.550Z,8.17
2019-02-25T03:49:56.393Z,7.70
2019-02-25T03:52:25.437Z,7.63
2019-02-25T03:54:54.174Z,7.33
2019-02-25T03:57:23.117Z,7.57
2019-02-25T03:59:51.777Z,8.07
2019-02-25T04:02:20.705Z,7.73
2019-02-25T04:04:50.013Z,7.20
2019-02-25T04:07:18.740Z,7.07
2019-02-25T04:09:47.651Z,7.77
2019-02-25T04:12:16.425Z,6.73
2019-02-25T04:14:45.120Z,7.93
2019-02-25T04:17:13.794Z,5.80
2019-02-25T04:19:42.597Z,6.30
2019-02-25T04:22:11.254Z,6.57
2019-02-25T04:24:39.937Z,6.97
2019-02-25T04:27:08.726Z,6.20
2019-02-25T04:29:37.608Z,7.10
2019-02-25T04:32:06.739Z,6.47
2019-02-25T04:34:35.758Z,6.90
2019-02-25T04:37:04.426Z,6.63
2019-02-25T04:39:33.077Z,6.27
2019-02-25T04:42:01.849Z,6.47
2019-02-25T04:44:30.517Z,6.37
2019-02-25T04:46:59.482Z,7.33
2019-02-25T04:49:28.708Z,6.93
2019-02-25T04:51:57.397Z,6.80
2019-02-25T04:54:27.472Z,7.23
2019-02-25T04:56:56.261Z,6.50
2019-02-25T04:59:25.008Z,6.97
2019-02-25T05:01:53.914Z,5.83
2019-02-25T05:04:22.834Z,6.80
2019-02-25T05:06:51.563Z,7.07
2019-02-25T05:09:20.473Z,7.23
2019-02-25T05:11:50.026Z,5.57
2019-02-25T05:14:18.718Z,7.90
2019-02-25T05:16:47.403Z,6.80
2019-02-25T05:19:16.233Z,7.40
2019-02-25T05:21:44.874Z,6.80
2019-02-25T05:24:13.777Z,8.37
2019-02-25T05:26:42.802Z,7.37
2019-02-25T05:29:11.601Z,6.73
2019-02-25T05:31:41.925Z,7.03
2019-02-25T05:34:10.648Z,6.10
2019-02-25T05:36:39.539Z,7.70
2019-02-25T05:39:08.367Z,8.30
2019-02-25T05:41:37.177Z,7.43
2019-02-25T05:44:08.408Z,7.33
2019-02-25T05:46:36.529Z,6.87
2019-02-25T05:49:05.383Z,7.30
2019-02-25T05:51:34.189Z,7.63
2019-02-25T05:54:03.101Z,6.93
2019-02-25T05:56:35.595Z,7.97
2019-02-25T05:59:04.417Z,7.07
2019-02-25T06:01:33.110Z,7.90
2019-02-25T06:04:02.078Z,7.00
2019-02-25T06:06:31.085Z,6.87
2019-02-25T06:09:00.198Z,7.57
2019-02-25T06:11:29.519Z,7.00
2019-02-25T06:13:58.648Z,7.80
2019-02-25T06:16:27.737Z,6.23
2019-02-25T06:18:56.535Z,7.90
2019-02-25T06:21:25.807Z,6.80
2019-02-25T06:23:55.064Z,7.77
2019-02-25T06:26:23.853Z,7.93
2019-02-25T06:28:52.526Z,7.90
2019-02-25T06:31:21.220Z,6.30
2019-02-25T06:33:50.493Z,7.25
2019-02-25T06:36:19.783Z,8.37
2019-02-25T06:38:48.770Z,8.20
2019-02-25T06:41:17.515Z,7.60
2019-02-25T06:43:46.225Z,9.23
2019-02-25T06:46:15.035Z,7.93
2019-02-25T06:48:44.050Z,9.20
2019-02-25T06:51:12.726Z,7.70
2019-02-25T06:53:41.382Z,7.67
2019-02-25T06:56:10.638Z,8.03
2019-02-25T06:58:40.659Z,7.83
2019-02-25T07:01:09.320Z,7.80
2019-02-25T07:03:38.888Z,7.70
2019-02-25T07:06:15.224Z,7.90
2019-02-25T07:08:50.788Z,7.27
2019-02-25T07:11:34.206Z,7.50
2019-02-25T07:14:25.026Z,7.60
2019-02-25T07:17:12.813Z,8.30
2019-02-25T07:19:52.450Z,8.98
2019-02-25T07:22:25.843Z,8.83
2019-02-25T07:25:16.997Z,8.95
2019-02-25T07:28:17.060Z,8.58
2019-02-25T07:30:54.630Z,8.40
2019-02-25T07:33:40.822Z,9.18
2019-02-25T07:36:32.108Z,8.65
2019-02-25T07:39:18.650Z,8.43
2019-02-25T07:42:12.679Z,8.90
2019-02-25T07:44:48.922Z,9.45
2019-02-25T07:47:35.437Z,8.38
2019-02-25T07:50:20.530Z,9.15
2019-02-25T07:53:02.624Z,9.33
2019-02-25T07:56:01.931Z,9.90
2019-02-25T07:58:39.442Z,9.33
2019-02-25T08:01:27.125Z,8.85
2019-02-25T08:04:02.801Z,10.70
2019-02-25T08:06:40.345Z,9.45
2019-02-25T08:09:27.123Z,10.32
2019-02-25T08:12:10.129Z,9.20
2019-02-25T08:14:50.857Z,9.28
2019-02-25T08:17:35.497Z,10.08
2019-02-25T08:20:22.296Z,9.75
2019-02-25T08:23:01.385Z,10.15
2019-02-25T08:25:52.607Z,9.55
2019-02-25T08:28:39.251Z,11.23
2019-02-25T08:31:18.863Z,10.82
2019-02-25T08:34:05.501Z,9.93
2019-02-25T08:37:45.070Z,10.32
2019-02-25T08:40:32.049Z,9.07
2019-02-25T08:43:13.773Z,10.25
2019-02-25T08:45:59.518Z,10.48
2019-02-25T08:48:38.122Z,10.35
2019-02-25T08:51:07.029Z,11.18
2019-02-25T08:53:35.801Z,11.28
2019-02-25T08:56:04.545Z,10.90
2019-02-25T08:58:33.309Z,11.63
2019-02-25T09:01:02.095Z,11.43
2019-02-25T09:03:31.477Z,12.33
2019-02-25T09:06:00.456Z,11.60
2019-02-25T09:08:29.161Z,11.12
2019-02-25T09:10:57.945Z,11.77
2019-02-25T09:13:29.653Z,10.95
2019-02-25T09:15:58.578Z,11.85
2019-02-25T09:18:27.590Z,12.85
2019-02-25T09:20:56.360Z,12.65
2019-02-25T09:23:25.095Z,13.30
2019-02-25T09:25:53.882Z,14.70
2019-02-25T09:28:22.594Z,13.40
2019-02-25T09:30:51.342Z,12.47
2019-02-25T09:33:20.409Z,12.90
2019-02-25T09:35:49.097Z,12.95
2019-02-25T09:38:18.017Z,12.63
2019-02-25T09:40:46.733Z,13.78
2019-02-25T09:43:15.417Z,14.43
2019-02-25T09:45:44.213Z,14.25
2019-02-25T09:48:12.940Z,14.20
2019-02-25T09:50:42.265Z,14.90
2019-02-25T09:53:11.193Z,14.20
2019-02-25T09:55:40.456Z,15.28
2019-02-25T09:58:09.222Z,15.10
2019-02-25T10:00:37.952Z,14.87
2019-02-25T10:03:06.989Z,17.48
2019-02-25T10:05:36.299Z,14.60
2019-02-25T10:08:04.968Z,16.48
2019-02-25T10:10:33.677Z,15.93
2019-02-25T10:13:02.622Z,16.25
2019-02-25T10:15:31.307Z,18.37
2019-02-25T10:18:00.524Z,18.48
2019-02-25T10:20:29.419Z,18.23
2019-02-25T10:22:58.107Z,17.75
2019-02-25T10:25:27.901Z,18.17
2019-02-25T10:27:56.669Z,17.32
2019-02-25T10:30:25.770Z,17.45
2019-02-25T10:32:54.935Z,18.37
2019-02-25T10:35:24.892Z,18.80
2019-02-25T10:37:53.771Z,17.85
2019-02-25T10:40:24.767Z,19.67
2019-02-25T10:42:53.372Z,18.23
2019-02-25T10:45:23.250Z,17.27
2019-02-25T10:47:57.636Z,19.12
2019-02-25T10:50:23.138Z,19.00
2019-02-25T10:52:51.897Z,18.82
2019-02-25T10:55:24.530Z,18.23
2019-02-25T10:57:54.975Z,16.80
2019-02-25T11:00:23.878Z,17.02
2019-02-25T11:02:53.591Z,16.37
2019-02-25T11:05:25.465Z,15.72
2019-02-25T11:07:54.047Z,16.67
2019-02-25T11:10:35.318Z,16.90
2019-02-25T11:13:04.958Z,15.35
2019-02-25T11:15:37.450Z,17.90
2019-02-25T11:18:08.249Z,16.75
2019-02-25T11:20:37.785Z,16.00
2019-02-25T11:23:06.684Z,14.53
2019-02-25T11:25:35.487Z,14.87
2019-02-25T11:28:05.399Z,13.55
2019-02-25T11:30:34.957Z,15.55
2019-02-25T11:33:04.574Z,15.00
2019-02-25T11:35:34.166Z,14.30
2019-02-25T11:38:03.126Z,14.53
2019-02-25T11:40:34.244Z,14.80
2019-02-25T11:43:02.755Z,16.12
2019-02-25T11:45:31.973Z,13.98
2019-02-25T11:48:00.881Z,15.05
2019-02-25T11:50:29.562Z,15.20
2019-02-25T11:52:58.614Z,17.20
2019-02-25T11:55:27.651Z,15.45
2019-02-25T11:57:56.350Z,14.00
2019-02-25T12:00:25.114Z,16.05
2019-02-25T12:02:53.897Z,13.43
2019-02-25T12:05:22.589Z,15.08
2019-02-25T12:07:51.576Z,15.13
2019-02-25T12:10:21.232Z,15.80
2019-02-25T12:12:49.958Z,14.78
2019-02-25T12:15:18.747Z,15.05
2019-02-25T12:17:47.731Z,15.08
2019-02-25T12:20:16.478Z,15.45
2019-02-25T12:22:45.462Z,15.18
2019-02-25T12:25:15.037Z,14.83
2019-02-25T12:27:43.795Z,14.83
2019-02-25T12:30:14.878Z,15.20
2019-02-25T12:32:43.674Z,13.94
2019-02-25T12:35:12.485Z,13.98
2019-02-25T12:37:41.206Z,15.53
2019-02-25T12:40:10.507Z,13.98
2019-02-25T12:42:39.434Z,14.93
2019-02-25T12:45:09.006Z,13.65
2019-02-25T12:47:38.538Z,14.70
2019-02-25T12:50:08.041Z,15.68
2019-02-25T12:52:36.837Z,14.20
2019-02-25T12:55:06.454Z,15.43
2019-02-25T12:57:35.160Z,14.45
2019-02-25T13:00:04.293Z,14.00
2019-02-25T13:02:33.159Z,13.60
2019-02-25T13:05:01.872Z,15.08
2019-02-25T13:07:31.061Z,14.23
2019-02-25T13:10:00.290Z,14.28
2019-02-25T13:12:29.286Z,14.23
2019-02-25T13:14:58.189Z,13.93
2019-02-25T13:17:27.197Z,13.10
2019-02-25T13:19:56.108Z,13.32
2019-02-25T13:22:25.885Z,12.65
2019-02-25T13:24:54.894Z,14.15
2019-02-25T13:27:23.781Z,14.45
2019-02-25T13:29:52.534Z,13.67
2019-02-25T13:32:21.329Z,12.78
2019-02-25T13:34:50.336Z,11.97
2019-02-25T13:37:19.318Z,12.78
2019-02-25T13:39:48.117Z,11.68
2019-02-25T13:42:17.390Z,11.95
2019-02-25T13:44:46.125Z,12.40
2019-02-25T13:47:15.300Z,12.40
2019-02-25T13:49:44.270Z,13.87
2019-02-25T13:52:13.477Z,14.78
2019-02-25T13:54:42.306Z,11.38
2019-02-25T13:57:11.071Z,12.82
2019-02-25T13:59:39.995Z,12.90
2019-02-25T14:02:08.755Z,12.82
2019-02-25T14:04:37.516Z,11.90
2019-02-25T14:07:06.342Z,11.93
2019-02-25T14:09:35.666Z,11.28
2019-02-25T14:12:04.677Z,11.30
2019-02-25T14:14:33.618Z,11.43
2019-02-25T14:17:02.494Z,10.88
2019-02-25T14:19:31.618Z,10.82
2019-02-25T14:22:00.409Z,11.10
2019-02-25T14:24:29.674Z,10.15
2019-02-25T14:26:58.763Z,11.20
2019-02-25T14:29:27.554Z,10.23
2019-02-25T14:31:56.764Z,10.38
2019-02-25T14:34:25.725Z,10.32
2019-02-25T14:36:55.325Z,10.60
2019-02-25T14:39:28.376Z,11.40
2019-02-25T14:41:58.891Z,10.68
2019-02-25T14:44:29.729Z,10.03
2019-02-25T14:46:58.700Z,10.50
2019-02-25T14:49:29.813Z,10.10
2019-02-25T14:51:58.815Z,9.85
2019-02-25T14:54:29.444Z,10.15
2019-02-25T14:56:58.189Z,10.18
2019-02-25T14:59:26.858Z,11.55
2019-02-25T15:01:56.976Z,10.03
2019-02-25T15:04:26.797Z,11.15
2019-02-25T15:06:55.560Z,10.15
2019-02-25T15:09:24.900Z,10.38
2019-02-25T15:11:55.907Z,9.70
2019-02-25T15:14:24.717Z,10.35
2019-02-25T15:16:53.789Z,9.40
2019-02-25T15:19:22.827Z,10.03
2019-02-25T15:21:52.180Z,9.93
2019-02-25T15:24:22.525Z,9.53
2019-02-25T15:26:51.296Z,9.93
2019-02-25T15:29:20.025Z,9.45
2019-02-25T15:31:48.906Z,9.98
2019-02-25T15:34:19.485Z,10.40
2019-02-25T15:36:48.316Z,9.73
2019-02-25T15:39:18.156Z,8.73
2019-02-25T15:41:48.692Z,8.18
2019-02-25T15:44:18.158Z,7.83
2019-02-25T15:46:47.295Z,8.33
2019-02-25T15:49:17.361Z,7.65
2019-02-25T15:51:46.990Z,7.70
2019-02-25T15:54:16.404Z,8.13
2019-02-25T15:56:45.314Z,9.93
2019-02-25T15:59:14.311Z,8.50
2019-02-25T16:01:43.644Z,8.30
2019-02-25T16:04:13.442Z,8.40
2019-02-25T16:06:42.486Z,7.57
2019-02-25T16:09:11.814Z,8.40
2019-02-25T16:11:41.371Z,7.95
2019-02-25T16:14:10.966Z,7.40
2019-02-25T16:16:40.156Z,9.15
2019-02-25T16:19:09.363Z,7.62
2019-02-25T16:21:40.932Z,7.65
2019-02-25T16:24:11.795Z,8.47
2019-02-25T16:26:40.601Z,8.13
2019-02-25T16:29:11.665Z,8.23
2019-02-25T16:31:40.402Z,8.43
2019-02-25T16:34:09.953Z,9.15
2019-02-25T16:36:41.282Z,8.83
2019-02-25T16:39:10.245Z,8.08
2019-02-25T16:41:41.023Z,9.15
2019-02-25T16:44:09.693Z,9.43
2019-02-25T16:46:41.768Z,8.03
2019-02-25T16:49:10.681Z,8.57
2019-02-25T16:51:39.798Z,8.63
2019-02-25T16:54:11.682Z,9.77
2019-02-25T16:56:41.251Z,8.97
2019-02-25T16:59:11.803Z,9.27
2019-02-25T17:01:42.032Z,8.97
2019-02-25T17:04:12.104Z,9.83
2019-02-25T17:06:42.047Z,10.00
2019-02-25T17:09:15.682Z,9.67
2019-02-25T17:11:46.041Z,9.87
2019-02-25T17:14:15.336Z,9.33
2019-02-25T17:16:45.518Z,9.33
2019-02-25T17:19:14.613Z,9.60
2019-02-25T17:21:43.708Z,8.87
2019-02-25T17:24:12.769Z,9.77
2019-02-25T17:26:41.693Z,9.43
2019-02-25T17:29:10.642Z,9.33
2019-02-25T17:31:40.836Z,9.53
2019-02-25T17:34:10.415Z,8.53
2019-02-25T17:36:40.273Z,10.83
2019-02-25T17:39:10.856Z,9.57
2019-02-25T17:41:40.422Z,10.03
2019-02-25T17:44:10.354Z,9.80
2019-02-25T17:46:41.193Z,9.78
2019-02-25T17:49:12.157Z,9.67
2019-02-25T17:51:40.842Z,8.97
2019-02-25T17:54:10.296Z,10.37
2019-02-25T17:56:40.866Z,11.43
2019-02-25T17:59:10.752Z,10.03
2019-02-25T18:01:41.754Z,10.80
2019-02-25T18:04:11.294Z,10.87
2019-02-25T18:06:41.470Z,10.20
2019-02-25T18:09:11.162Z,10.90
2019-02-25T18:11:41.239Z,11.77
2019-02-25T18:14:11.152Z,10.97
2019-02-25T18:16:42.566Z,9.73
2019-02-25T18:19:13.934Z,10.70
2019-02-25T18:21:44.413Z,10.43
2019-02-25T18:24:14.219Z,9.83
2019-02-25T18:26:44.442Z,10.40
2019-02-25T18:29:15.642Z,10.20
2019-02-25T18:31:44.230Z,9.77
2019-02-25T18:34:13.385Z,10.20
2019-02-25T18:36:45.190Z,10.90
2019-02-25T18:39:14.322Z,11.17
2019-02-25T18:41:43.308Z,10.33
2019-02-25T18:44:13.509Z,11.27
2019-02-25T18:46:45.991Z,9.90
2019-02-25T18:49:15.111Z,11.37
2019-02-25T18:51:43.868Z,10.40
2019-02-25T18:54:14.241Z,10.87
2019-02-25T18:56:44.629Z,11.50
2019-02-25T18:59:15.673Z,10.67
2019-02-25T19:01:45.379Z,10.03
2019-02-25T19:04:15.904Z,10.60
2019-02-25T19:06:47.660Z,10.43
2019-02-25T19:09:21.213Z,10.80
2019-02-25T19:11:51.266Z,10.70
2019-02-25T19:14:22.070Z,9.65
2019-02-25T19:16:51.439Z,11.90
2019-02-25T19:19:20.165Z,9.73
2019-02-25T19:21:50.052Z,10.27
2019-02-25T19:24:19.965Z,10.70
2019-02-25T19:26:52.597Z,9.67
2019-02-25T19:29:23.647Z,11.07
2019-02-25T19:31:52.727Z,9.50
2019-02-25T19:34:21.777Z,11.47
2019-02-25T19:36:50.581Z,10.87
2019-02-25T19:39:21.538Z,10.63
2019-02-25T19:41:51.381Z,10.90
2019-02-25T19:44:21.248Z,10.47
2019-02-25T19:46:51.237Z,11.07
2019-02-25T19:49:20.681Z,10.17
2019-02-25T19:51:50.748Z,10.43
2019-02-25T19:54:19.964Z,10.23
2019-02-25T19:56:50.783Z,10.33
2019-02-25T19:59:21.626Z,11.10
2019-02-25T20:01:50.104Z,10.00
2019-02-25T20:04:18.924Z,9.90
2019-02-25T20:06:48.926Z,10.33
2019-02-25T20:09:18.499Z,10.10
2019-02-25T20:11:47.341Z,9.70
2019-02-25T20:14:17.160Z,11.37
2019-02-25T20:16:46.401Z,11.07
2019-02-25T20:19:16.681Z,10.60
2019-02-25T20:21:46.427Z,11.10
2019-02-25T20:24:21.176Z,10.30
2019-02-25T20:26:52.557Z,10.97
2019-02-25T20:29:20.683Z,10.07
2019-02-25T20:31:51.721Z,10.27
2019-02-25T20:34:22.573Z,10.07
2019-02-25T20:36:53.073Z,12.17
2019-02-25T20:39:21.588Z,10.60
2019-02-25T20:41:52.196Z,11.53
2019-02-25T20:44:22.266Z,10.18
2019-02-25T20:46:52.827Z,10.87
2019-02-25T20:49:22.705Z,10.67
2019-02-25T20:51:54.467Z,10.27
2019-02-25T20:54:23.793Z,10.80
2019-02-25T20:56:53.369Z,11.30
2019-02-25T20:59:24.035Z,9.90
2019-02-25T21:01:53.677Z,10.65
2019-02-25T21:04:22.921Z,11.40
2019-02-25T21:06:51.706Z,10.53
2019-02-25T21:09:21.517Z,10.07
2019-02-25T21:11:50.305Z,10.30
2019-02-25T21:14:19.245Z,10.20
2019-02-25T21:16:48.086Z,11.23
2019-02-25T21:19:18.399Z,10.17
2019-02-25T21:21:52.977Z,11.30
2019-02-25T21:24:19.265Z,10.87
2019-02-25T21:26:48.144Z,11.00
2019-02-25T21:29:17.047Z,11.67
2019-02-25T21:31:47.577Z,11.27
2019-02-25T21:34:20.521Z,12.33
2019-02-25T21:36:47.341Z,11.30
2019-02-25T21:39:16.955Z,12.67
2019-02-25T21:41:46.530Z,11.20
2019-02-25T21:44:18.887Z,10.80
2019-02-25T21:46:49.582Z,11.03
2019-02-25T21:49:16.357Z,10.20
2019-02-25T21:51:48.062Z,11.53
2019-02-25T21:54:15.772Z,9.87
2019-02-25T21:56:44.742Z,11.10
2019-02-25T21:59:14.971Z,11.17
2019-02-25T22:01:44.229Z,11.43
2019-02-25T22:04:13.382Z,11.07
2019-02-25T22:06:47.141Z,12.20
2019-02-25T22:09:14.566Z,10.40
2019-02-25T22:11:43.301Z,10.67
2019-02-25T22:14:12.254Z,10.77
2019-02-25T22:16:44.321Z,11.07
2019-02-25T22:19:14.197Z,10.50
2019-02-25T22:21:43.710Z,9.57
2019-02-25T22:24:13.132Z,10.17
2019-02-25T22:26:42.058Z,9.90
2019-02-25T22:29:12.806Z,10.80
2019-02-25T22:31:44.313Z,10.47
2019-02-25T22:34:15.327Z,9.80
2019-02-25T22:36:46.116Z,11.03
2019-02-25T22:39:14.539Z,10.97
2019-02-25T22:41:44.534Z,10.40
2019-02-25T22:44:13.593Z,10.70
2019-02-25T22:46:43.430Z,9.07
2019-02-25T22:49:12.221Z,9.87
2019-02-25T22:51:41.043Z,9.37
2019-02-25T22:54:10.354Z,10.50
2019-02-25T22:56:40.237Z,10.30
2019-02-25T22:59:08.979Z,10.93
2019-02-25T23:01:37.812Z,10.30
2019-02-25T23:04:06.741Z,10.13
2019-02-25T23:06:39.729Z,10.03
2019-02-25T23:09:12.281Z,10.82
2019-02-25T23:11:41.809Z,9.80
2019-02-25T23:14:11.423Z,9.83
2019-02-25T23:16:41.591Z,10.20
2019-02-25T23:19:12.007Z,10.27
2019-02-25T23:21:41.868Z,10.33
2019-02-25T23:24:11.428Z,10.33
2019-02-25T23:26:40.353Z,10.27
2019-02-25T23:29:09.053Z,11.10
2019-02-25T23:31:37.778Z,11.20
2019-02-25T23:34:08.000Z,11.13
2019-02-25T23:36:40.584Z,10.07
2019-02-25T23:39:08.725Z,10.60
2019-02-25T23:41:39.022Z,11.00
2019-02-25T23:44:08.975Z,10.70
2019-02-25T23:46:40.012Z,9.93
2019-02-25T23:49:09.046Z,10.43
2019-02-25T23:51:39.949Z,10.03
2019-02-25T23:54:12.139Z,10.63
2019-02-25T23:56:40.467Z,10.60
2019-02-25T23:59:12.660Z,10.67
